Terminal Aerodrome Forecast
Issued by NWS

Home | Current Version | Previous Version | Text Only | Print | Product List | Glossary On
Versions: 1 2 3 4 5 6 7 8 9 10 11 12 13 14 15 16 17 18 19 20 21 22 23 24 25 26 27 28 29 30 31 32 33 34 35 36 37 38 39 40 41 42 43 44 45 46 47 48
000
FTUS41 KBOX 010317 AAB
TAFBED
TAF AMD
KBED 010317Z 0103/0124 03009KT 5SM -SHRA BR OVC007
     FM011300 04008KT 2SM -SHRA OVC008
     FM011500 04009KT 1SM -SHRA OVC008
     FM011800 05010G22KT 2SM -SHRA OVC015
     FM011900 05010G22KT 2SM BR VCSH OVC010=

USA.gov is the U.S. government's official web portal to all federal, state and local government web resources and services.